sensor_id;sensor_type;location;lat;lon;timestamp;P1;durP1;ratioP1;P2;durP2;ratioP2
76123;SDS011;65173;48.066;20.976;2024-02-23T00:02:23;5.22;;;3.03;;
76123;SDS011;65173;48.066;20.976;2024-02-23T00:05:26;3.80;;;2.70;;
76123;SDS011;65173;48.066;20.976;2024-02-23T00:08:29;3.15;;;1.20;;
76123;SDS011;65173;48.066;20.976;2024-02-23T00:11:32;1.67;;;1.37;;
76123;SDS011;65173;48.066;20.976;2024-02-23T00:14:35;2.92;;;1.60;;
76123;SDS011;65173;48.066;20.976;2024-02-23T00:17:38;3.72;;;2.08;;
76123;SDS011;65173;48.066;20.976;2024-02-23T00:20:41;4.67;;;1.63;;
76123;SDS011;65173;48.066;20.976;2024-02-23T00:23:44;4.30;;;2.22;;
76123;SDS011;65173;48.066;20.976;2024-02-23T00:26:48;2.10;;;1.20;;
76123;SDS011;65173;48.066;20.976;2024-02-23T00:29:51;2.72;;;1.17;;
76123;SDS011;65173;48.066;20.976;2024-02-23T00:32:53;1.38;;;1.15;;
76123;SDS011;65173;48.066;20.976;2024-02-23T00:35:56;2.17;;;0.90;;
76123;SDS011;65173;48.066;20.976;2024-02-23T00:38:58;2.90;;;1.58;;
76123;SDS011;65173;48.066;20.976;2024-02-23T00:42:01;2.07;;;0.90;;
76123;SDS011;65173;48.066;20.976;2024-02-23T00:45:04;3.28;;;1.52;;
76123;SDS011;65173;48.066;20.976;2024-02-23T00:48:07;1.80;;;1.45;;
76123;SDS011;65173;48.066;20.976;2024-02-23T00:51:09;3.67;;;1.90;;
76123;SDS011;65173;48.066;20.976;2024-02-23T00:54:12;6.03;;;2.25;;
76123;SDS011;65173;48.066;20.976;2024-02-23T00:57:14;4.13;;;1.77;;
76123;SDS011;65173;48.066;20.976;2024-02-23T01:00:18;3.35;;;2.00;;
76123;SDS011;65173;48.066;20.976;2024-02-23T01:03:20;3.03;;;2.35;;
76123;SDS011;65173;48.066;20.976;2024-02-23T01:06:23;2.92;;;2.13;;
76123;SDS011;65173;48.066;20.976;2024-02-23T01:09:27;2.70;;;2.40;;
76123;SDS011;65173;48.066;20.976;2024-02-23T01:12:29;4.67;;;2.20;;
76123;SDS011;65173;48.066;20.976;2024-02-23T01:15:32;4.18;;;2.53;;
76123;SDS011;65173;48.066;20.976;2024-02-23T01:18:34;4.28;;;2.08;;
76123;SDS011;65173;48.066;20.976;2024-02-23T01:21:37;5.13;;;2.03;;
76123;SDS011;65173;48.066;20.976;2024-02-23T01:24:39;8.60;;;2.63;;
76123;SDS011;65173;48.066;20.976;2024-02-23T01:27:42;2.85;;;1.90;;
76123;SDS011;65173;48.066;20.976;2024-02-23T01:30:46;5.40;;;2.53;;
76123;SDS011;65173;48.066;20.976;2024-02-23T01:33:49;4.10;;;2.15;;
76123;SDS011;65173;48.066;20.976;2024-02-23T01:36:52;3.28;;;2.55;;
76123;SDS011;65173;48.066;20.976;2024-02-23T01:39:55;4.57;;;2.85;;
76123;SDS011;65173;48.066;20.976;2024-02-23T01:43:01;2.73;;;1.87;;
76123;SDS011;65173;48.066;20.976;2024-02-23T01:46:06;3.67;;;2.45;;
76123;SDS011;65173;48.066;20.976;2024-02-23T01:49:09;5.60;;;2.83;;
76123;SDS011;65173;48.066;20.976;2024-02-23T01:52:12;6.77;;;3.17;;
76123;SDS011;65173;48.066;20.976;2024-02-23T01:55:16;6.85;;;3.90;;
76123;SDS011;65173;48.066;20.976;2024-02-23T01:58:18;5.20;;;3.03;;
76123;SDS011;65173;48.066;20.976;2024-02-23T02:01:21;7.32;;;3.55;;
76123;SDS011;65173;48.066;20.976;2024-02-23T02:04:23;6.85;;;2.97;;
76123;SDS011;65173;48.066;20.976;2024-02-23T02:07:26;5.28;;;2.70;;
76123;SDS011;65173;48.066;20.976;2024-02-23T02:10:28;4.68;;;3.42;;
76123;SDS011;65173;48.066;20.976;2024-02-23T02:13:31;8.43;;;4.00;;
76123;SDS011;65173;48.066;20.976;2024-02-23T02:16:33;9.48;;;3.60;;
76123;SDS011;65173;48.066;20.976;2024-02-23T02:19:36;5.15;;;2.85;;
76123;SDS011;65173;48.066;20.976;2024-02-23T02:22:39;2.63;;;1.73;;
76123;SDS011;65173;48.066;20.976;2024-02-23T02:25:41;2.88;;;2.25;;
76123;SDS011;65173;48.066;20.976;2024-02-23T02:28:44;8.55;;;4.25;;
76123;SDS011;65173;48.066;20.976;2024-02-23T02:31:47;3.70;;;2.28;;
76123;SDS011;65173;48.066;20.976;2024-02-23T02:34:49;1.17;;;0.90;;
76123;SDS011;65173;48.066;20.976;2024-02-23T02:37:52;3.20;;;1.83;;
76123;SDS011;65173;48.066;20.976;2024-02-23T02:40:55;2.50;;;2.30;;
76123;SDS011;65173;48.066;20.976;2024-02-23T02:43:57;1.63;;;1.07;;
76123;SDS011;65173;48.066;20.976;2024-02-23T02:47:00;5.28;;;2.05;;
76123;SDS011;65173;48.066;20.976;2024-02-23T02:50:03;5.63;;;3.40;;
76123;SDS011;65173;48.066;20.976;2024-02-23T02:53:10;6.63;;;3.80;;
76123;SDS011;65173;48.066;20.976;2024-02-23T02:56:12;6.28;;;3.17;;
76123;SDS011;65173;48.066;20.976;2024-02-23T02:59:15;6.43;;;3.45;;
76123;SDS011;65173;48.066;20.976;2024-02-23T03:02:17;6.38;;;2.28;;
76123;SDS011;65173;48.066;20.976;2024-02-23T03:05:20;1.50;;;0.98;;
76123;SDS011;65173;48.066;20.976;2024-02-23T03:08:22;3.22;;;1.80;;
76123;SDS011;65173;48.066;20.976;2024-02-23T03:11:25;6.05;;;2.47;;
76123;SDS011;65173;48.066;20.976;2024-02-23T03:14:28;4.10;;;2.23;;
76123;SDS011;65173;48.066;20.976;2024-02-23T03:17:30;1.10;;;0.95;;
76123;SDS011;65173;48.066;20.976;2024-02-23T03:20:33;4.43;;;2.05;;
76123;SDS011;65173;48.066;20.976;2024-02-23T03:23:36;2.03;;;1.23;;
76123;SDS011;65173;48.066;20.976;2024-02-23T03:26:38;2.00;;;1.55;;
76123;SDS011;65173;48.066;20.976;2024-02-23T03:29:41;3.10;;;1.38;;
76123;SDS011;65173;48.066;20.976;2024-02-23T03:32:43;3.40;;;1.65;;
76123;SDS011;65173;48.066;20.976;2024-02-23T03:35:46;4.05;;;1.05;;
76123;SDS011;65173;48.066;20.976;2024-02-23T03:38:49;0.93;;;0.68;;
76123;SDS011;65173;48.066;20.976;2024-02-23T03:41:51;1.48;;;0.70;;
76123;SDS011;65173;48.066;20.976;2024-02-23T03:44:54;1.27;;;0.40;;
76123;SDS011;65173;48.066;20.976;2024-02-23T03:47:56;0.52;;;0.52;;
76123;SDS011;65173;48.066;20.976;2024-02-23T03:50:59;0.98;;;0.93;;
76123;SDS011;65173;48.066;20.976;2024-02-23T03:54:02;1.97;;;1.23;;
76123;SDS011;65173;48.066;20.976;2024-02-23T03:57:05;1.40;;;0.70;;
76123;SDS011;65173;48.066;20.976;2024-02-23T04:00:07;1.63;;;0.93;;
76123;SDS011;65173;48.066;20.976;2024-02-23T04:03:16;3.97;;;0.52;;
76123;SDS011;65173;48.066;20.976;2024-02-23T04:06:18;2.53;;;1.02;;
76123;SDS011;65173;48.066;20.976;2024-02-23T04:09:21;0.47;;;0.30;;
76123;SDS011;65173;48.066;20.976;2024-02-23T04:12:24;1.27;;;0.88;;
76123;SDS011;65173;48.066;20.976;2024-02-23T04:15:26;1.33;;;0.83;;
76123;SDS011;65173;48.066;20.976;2024-02-23T04:18:29;0.80;;;0.80;;
76123;SDS011;65173;48.066;20.976;2024-02-23T04:21:32;1.30;;;1.00;;
76123;SDS011;65173;48.066;20.976;2024-02-23T04:24:34;1.00;;;0.73;;
76123;SDS011;65173;48.066;20.976;2024-02-23T04:27:38;1.85;;;0.63;;
76123;SDS011;65173;48.066;20.976;2024-02-23T04:30:41;0.57;;;0.52;;
76123;SDS011;65173;48.066;20.976;2024-02-23T04:33:43;1.35;;;0.80;;
76123;SDS011;65173;48.066;20.976;2024-02-23T04:36:46;0.77;;;0.75;;
76123;SDS011;65173;48.066;20.976;2024-02-23T04:39:48;0.80;;;0.68;;
76123;SDS011;65173;48.066;20.976;2024-02-23T04:42:50;1.10;;;1.00;;
76123;SDS011;65173;48.066;20.976;2024-02-23T04:45:53;2.70;;;1.53;;
76123;SDS011;65173;48.066;20.976;2024-02-23T04:48:55;0.82;;;0.30;;
76123;SDS011;65173;48.066;20.976;2024-02-23T04:51:58;1.45;;;1.10;;
76123;SDS011;65173;48.066;20.976;2024-02-23T04:55:00;1.50;;;0.80;;
76123;SDS011;65173;48.066;20.976;2024-02-23T04:58:03;1.40;;;0.80;;
76123;SDS011;65173;48.066;20.976;2024-02-23T05:01:06;2.00;;;0.80;;
76123;SDS011;65173;48.066;20.976;2024-02-23T05:04:08;2.05;;;1.20;;
76123;SDS011;65173;48.066;20.976;2024-02-23T05:07:11;1.13;;;0.52;;
76123;SDS011;65173;48.066;20.976;2024-02-23T05:10:13;0.93;;;0.65;;
76123;SDS011;65173;48.066;20.976;2024-02-23T05:13:16;1.63;;;0.80;;
76123;SDS011;65173;48.066;20.976;2024-02-23T05:16:19;1.47;;;1.10;;
76123;SDS011;65173;48.066;20.976;2024-02-23T05:19:21;5.13;;;2.67;;
76123;SDS011;65173;48.066;20.976;2024-02-23T05:22:24;1.33;;;1.10;;
76123;SDS011;65173;48.066;20.976;2024-02-23T05:25:26;3.20;;;2.10;;
76123;SDS011;65173;48.066;20.976;2024-02-23T05:28:29;1.50;;;0.90;;
76123;SDS011;65173;48.066;20.976;2024-02-23T05:31:44;3.38;;;1.33;;
76123;SDS011;65173;48.066;20.976;2024-02-23T05:34:51;1.88;;;1.52;;
76123;SDS011;65173;48.066;20.976;2024-02-23T05:37:56;1.33;;;1.02;;
76123;SDS011;65173;48.066;20.976;2024-02-23T05:40:58;1.77;;;1.02;;
76123;SDS011;65173;48.066;20.976;2024-02-23T05:44:01;1.52;;;1.15;;
76123;SDS011;65173;48.066;20.976;2024-02-23T05:47:07;2.20;;;1.57;;
76123;SDS011;65173;48.066;20.976;2024-02-23T05:50:10;1.10;;;0.80;;
76123;SDS011;65173;48.066;20.976;2024-02-23T05:53:12;2.95;;;1.00;;
76123;SDS011;65173;48.066;20.976;2024-02-23T05:56:15;1.70;;;1.10;;
76123;SDS011;65173;48.066;20.976;2024-02-23T05:59:17;3.78;;;1.42;;
76123;SDS011;65173;48.066;20.976;2024-02-23T06:02:20;1.45;;;0.80;;
76123;SDS011;65173;48.066;20.976;2024-02-23T06:05:23;8.10;;;2.30;;
76123;SDS011;65173;48.066;20.976;2024-02-23T06:08:29;0.98;;;0.90;;
76123;SDS011;65173;48.066;20.976;2024-02-23T06:11:32;1.48;;;1.08;;
76123;SDS011;65173;48.066;20.976;2024-02-23T06:14:35;1.95;;;1.13;;
76123;SDS011;65173;48.066;20.976;2024-02-23T06:17:37;1.87;;;0.93;;
76123;SDS011;65173;48.066;20.976;2024-02-23T06:20:41;2.50;;;1.60;;
76123;SDS011;65173;48.066;20.976;2024-02-23T06:23:45;1.98;;;1.52;;
76123;SDS011;65173;48.066;20.976;2024-02-23T06:26:48;6.10;;;1.77;;
76123;SDS011;65173;48.066;20.976;2024-02-23T06:29:51;3.10;;;2.22;;
76123;SDS011;65173;48.066;20.976;2024-02-23T06:32:53;2.30;;;1.73;;
76123;SDS011;65173;48.066;20.976;2024-02-23T06:35:56;4.20;;;2.38;;
76123;SDS011;65173;48.066;20.976;2024-02-23T06:38:59;1.05;;;1.02;;
76123;SDS011;65173;48.066;20.976;2024-02-23T06:42:01;3.13;;;2.28;;
76123;SDS011;65173;48.066;20.976;2024-02-23T06:45:06;2.97;;;2.25;;
76123;SDS011;65173;48.066;20.976;2024-02-23T06:48:09;4.97;;;1.87;;
76123;SDS011;65173;48.066;20.976;2024-02-23T06:51:12;2.28;;;0.98;;
76123;SDS011;65173;48.066;20.976;2024-02-23T06:54:14;2.05;;;1.10;;
76123;SDS011;65173;48.066;20.976;2024-02-23T06:57:18;1.23;;;0.83;;
76123;SDS011;65173;48.066;20.976;2024-02-23T07:00:21;4.78;;;1.95;;
76123;SDS011;65173;48.066;20.976;2024-02-23T07:03:23;3.40;;;1.27;;
76123;SDS011;65173;48.066;20.976;2024-02-23T07:06:26;2.97;;;1.95;;
76123;SDS011;65173;48.066;20.976;2024-02-23T07:09:30;1.42;;;1.23;;
76123;SDS011;65173;48.066;20.976;2024-02-23T07:12:33;3.08;;;2.53;;
76123;SDS011;65173;48.066;20.976;2024-02-23T07:15:35;4.03;;;2.17;;
76123;SDS011;65173;48.066;20.976;2024-02-23T07:18:40;3.00;;;1.90;;
76123;SDS011;65173;48.066;20.976;2024-02-23T07:21:42;3.67;;;2.03;;
76123;SDS011;65173;48.066;20.976;2024-02-23T07:24:45;2.08;;;1.38;;
76123;SDS011;65173;48.066;20.976;2024-02-23T07:27:48;3.93;;;1.63;;
76123;SDS011;65173;48.066;20.976;2024-02-23T07:30:51;4.85;;;2.05;;
76123;SDS011;65173;48.066;20.976;2024-02-23T07:33:55;2.28;;;1.02;;
76123;SDS011;65173;48.066;20.976;2024-02-23T07:36:57;2.63;;;1.13;;
76123;SDS011;65173;48.066;20.976;2024-02-23T07:40:00;1.40;;;1.27;;
76123;SDS011;65173;48.066;20.976;2024-02-23T07:43:03;4.05;;;1.67;;
76123;SDS011;65173;48.066;20.976;2024-02-23T07:46:05;5.07;;;3.20;;
76123;SDS011;65173;48.066;20.976;2024-02-23T07:49:10;1.67;;;1.30;;
76123;SDS011;65173;48.066;20.976;2024-02-23T07:52:13;1.90;;;1.50;;
76123;SDS011;65173;48.066;20.976;2024-02-23T07:55:16;2.15;;;1.90;;
76123;SDS011;65173;48.066;20.976;2024-02-23T07:58:18;1.47;;;1.23;;
76123;SDS011;65173;48.066;20.976;2024-02-23T08:01:21;3.05;;;2.05;;
76123;SDS011;65173;48.066;20.976;2024-02-23T08:04:23;2.35;;;1.05;;
76123;SDS011;65173;48.066;20.976;2024-02-23T08:07:26;3.03;;;2.08;;
76123;SDS011;65173;48.066;20.976;2024-02-23T08:10:30;7.55;;;4.38;;
76123;SDS011;65173;48.066;20.976;2024-02-23T08:13:33;4.40;;;2.10;;
76123;SDS011;65173;48.066;20.976;2024-02-23T08:16:35;3.17;;;1.80;;
76123;SDS011;65173;48.066;20.976;2024-02-23T08:19:38;2.57;;;1.70;;
76123;SDS011;65173;48.066;20.976;2024-02-23T08:22:41;4.13;;;3.30;;
76123;SDS011;65173;48.066;20.976;2024-02-23T08:25:43;7.38;;;3.05;;
76123;SDS011;65173;48.066;20.976;2024-02-23T08:28:45;3.73;;;2.70;;
76123;SDS011;65173;48.066;20.976;2024-02-23T08:31:48;4.38;;;3.03;;
76123;SDS011;65173;48.066;20.976;2024-02-23T08:34:53;7.53;;;3.67;;
76123;SDS011;65173;48.066;20.976;2024-02-23T08:38:02;4.55;;;2.03;;
76123;SDS011;65173;48.066;20.976;2024-02-23T08:41:04;5.45;;;4.05;;
76123;SDS011;65173;48.066;20.976;2024-02-23T08:44:07;5.97;;;4.32;;
76123;SDS011;65173;48.066;20.976;2024-02-23T08:47:09;8.98;;;5.28;;
76123;SDS011;65173;48.066;20.976;2024-02-23T08:50:12;6.70;;;4.30;;
76123;SDS011;65173;48.066;20.976;2024-02-23T08:53:15;4.95;;;2.00;;
76123;SDS011;65173;48.066;20.976;2024-02-23T08:56:17;3.88;;;2.50;;
76123;SDS011;65173;48.066;20.976;2024-02-23T08:59:20;7.33;;;2.50;;
76123;SDS011;65173;48.066;20.976;2024-02-23T09:02:22;4.97;;;2.72;;
76123;SDS011;65173;48.066;20.976;2024-02-23T09:05:26;4.38;;;2.55;;
76123;SDS011;65173;48.066;20.976;2024-02-23T09:08:28;4.30;;;2.72;;
76123;SDS011;65173;48.066;20.976;2024-02-23T09:11:31;3.42;;;2.78;;
76123;SDS011;65173;48.066;20.976;2024-02-23T09:14:33;2.45;;;2.10;;
76123;SDS011;65173;48.066;20.976;2024-02-23T09:17:40;3.20;;;1.92;;
76123;SDS011;65173;48.066;20.976;2024-02-23T09:20:44;5.40;;;3.33;;
76123;SDS011;65173;48.066;20.976;2024-02-23T09:23:46;4.10;;;2.97;;
76123;SDS011;65173;48.066;20.976;2024-02-23T09:26:49;4.22;;;2.85;;
76123;SDS011;65173;48.066;20.976;2024-02-23T09:29:54;5.30;;;3.97;;
76123;SDS011;65173;48.066;20.976;2024-02-23T09:32:57;6.93;;;3.53;;
76123;SDS011;65173;48.066;20.976;2024-02-23T09:36:00;3.55;;;2.80;;
76123;SDS011;65173;48.066;20.976;2024-02-23T09:39:03;7.70;;;3.22;;
76123;SDS011;65173;48.066;20.976;2024-02-23T09:42:08;7.05;;;3.25;;
76123;SDS011;65173;48.066;20.976;2024-02-23T09:45:13;4.70;;;3.63;;
76123;SDS011;65173;48.066;20.976;2024-02-23T09:48:16;7.13;;;2.65;;
76123;SDS011;65173;48.066;20.976;2024-02-23T09:51:21;5.20;;;2.87;;
76123;SDS011;65173;48.066;20.976;2024-02-23T09:54:25;3.70;;;2.95;;
76123;SDS011;65173;48.066;20.976;2024-02-23T09:57:28;6.50;;;3.63;;
76123;SDS011;65173;48.066;20.976;2024-02-23T10:00:30;4.00;;;3.60;;
76123;SDS011;65173;48.066;20.976;2024-02-23T10:03:33;4.38;;;3.92;;
76123;SDS011;65173;48.066;20.976;2024-02-23T10:06:37;5.57;;;3.13;;
76123;SDS011;65173;48.066;20.976;2024-02-23T10:09:40;10.25;;;4.90;;
76123;SDS011;65173;48.066;20.976;2024-02-23T10:12:42;3.35;;;2.63;;
76123;SDS011;65173;48.066;20.976;2024-02-23T10:15:45;4.28;;;2.08;;
76123;SDS011;65173;48.066;20.976;2024-02-23T10:19:07;7.07;;;4.35;;
76123;SDS011;65173;48.066;20.976;2024-02-23T10:22:10;6.13;;;3.73;;
76123;SDS011;65173;48.066;20.976;2024-02-23T10:25:12;6.35;;;3.88;;
76123;SDS011;65173;48.066;20.976;2024-02-23T10:28:17;6.47;;;3.60;;
76123;SDS011;65173;48.066;20.976;2024-02-23T10:31:24;6.93;;;3.87;;
76123;SDS011;65173;48.066;20.976;2024-02-23T10:34:27;3.35;;;2.67;;
76123;SDS011;65173;48.066;20.976;2024-02-23T10:37:31;6.47;;;4.25;;
76123;SDS011;65173;48.066;20.976;2024-02-23T10:40:36;8.57;;;4.95;;
76123;SDS011;65173;48.066;20.976;2024-02-23T10:43:44;8.27;;;6.10;;
76123;SDS011;65173;48.066;20.976;2024-02-23T10:46:49;9.02;;;4.43;;
76123;SDS011;65173;48.066;20.976;2024-02-23T10:49:53;9.05;;;5.97;;
76123;SDS011;65173;48.066;20.976;2024-02-23T10:52:56;6.20;;;3.57;;
76123;SDS011;65173;48.066;20.976;2024-02-23T10:55:59;5.50;;;3.60;;
76123;SDS011;65173;48.066;20.976;2024-02-23T10:59:02;6.85;;;5.10;;
76123;SDS011;65173;48.066;20.976;2024-02-23T11:02:05;6.10;;;3.80;;
76123;SDS011;65173;48.066;20.976;2024-02-23T11:05:09;4.88;;;2.65;;
76123;SDS011;65173;48.066;20.976;2024-02-23T11:08:17;7.55;;;3.22;;
76123;SDS011;65173;48.066;20.976;2024-02-23T11:11:21;4.15;;;2.90;;
76123;SDS011;65173;48.066;20.976;2024-02-23T11:14:30;4.03;;;3.05;;
76123;SDS011;65173;48.066;20.976;2024-02-23T11:17:35;4.82;;;4.18;;
76123;SDS011;65173;48.066;20.976;2024-02-23T11:20:40;3.22;;;2.20;;
76123;SDS011;65173;48.066;20.976;2024-02-23T11:23:48;4.63;;;3.70;;
76123;SDS011;65173;48.066;20.976;2024-02-23T11:26:55;7.03;;;5.07;;
76123;SDS011;65173;48.066;20.976;2024-02-23T11:30:01;4.03;;;2.50;;
76123;SDS011;65173;48.066;20.976;2024-02-23T11:33:07;3.63;;;1.70;;
76123;SDS011;65173;48.066;20.976;2024-02-23T11:36:10;4.45;;;2.90;;
76123;SDS011;65173;48.066;20.976;2024-02-23T11:39:13;4.40;;;2.45;;
76123;SDS011;65173;48.066;20.976;2024-02-23T11:42:15;4.40;;;3.38;;
76123;SDS011;65173;48.066;20.976;2024-02-23T11:45:18;3.65;;;1.77;;
76123;SDS011;65173;48.066;20.976;2024-02-23T11:48:20;4.63;;;3.42;;
76123;SDS011;65173;48.066;20.976;2024-02-23T11:51:26;1.98;;;1.50;;
76123;SDS011;65173;48.066;20.976;2024-02-23T11:54:31;2.47;;;1.63;;
76123;SDS011;65173;48.066;20.976;2024-02-23T11:57:34;3.88;;;1.77;;
76123;SDS011;65173;48.066;20.976;2024-02-23T12:00:50;2.20;;;1.48;;
76123;SDS011;65173;48.066;20.976;2024-02-23T12:03:53;3.40;;;2.17;;
76123;SDS011;65173;48.066;20.976;2024-02-23T12:06:56;4.40;;;3.00;;
76123;SDS011;65173;48.066;20.976;2024-02-23T12:09:59;2.13;;;1.45;;
76123;SDS011;65173;48.066;20.976;2024-02-23T12:13:02;3.95;;;2.83;;
76123;SDS011;65173;48.066;20.976;2024-02-23T12:16:07;4.78;;;2.53;;
76123;SDS011;65173;48.066;20.976;2024-02-23T12:19:10;2.85;;;1.65;;
76123;SDS011;65173;48.066;20.976;2024-02-23T12:22:13;2.65;;;2.22;;
76123;SDS011;65173;48.066;20.976;2024-02-23T12:25:16;2.07;;;1.63;;
76123;SDS011;65173;48.066;20.976;2024-02-23T12:28:19;3.17;;;2.38;;
76123;SDS011;65173;48.066;20.976;2024-02-23T12:31:25;4.80;;;3.13;;
76123;SDS011;65173;48.066;20.976;2024-02-23T12:34:28;6.80;;;2.87;;
76123;SDS011;65173;48.066;20.976;2024-02-23T12:37:34;3.65;;;2.22;;
76123;SDS011;65173;48.066;20.976;2024-02-23T12:40:37;3.95;;;2.28;;
76123;SDS011;65173;48.066;20.976;2024-02-23T12:43:40;2.53;;;2.15;;
76123;SDS011;65173;48.066;20.976;2024-02-23T12:46:45;2.33;;;1.38;;
76123;SDS011;65173;48.066;20.976;2024-02-23T12:49:47;2.53;;;1.85;;
76123;SDS011;65173;48.066;20.976;2024-02-23T12:52:50;3.55;;;1.88;;
76123;SDS011;65173;48.066;20.976;2024-02-23T12:55:54;4.63;;;2.53;;
76123;SDS011;65173;48.066;20.976;2024-02-23T12:58:57;2.78;;;1.67;;
76123;SDS011;65173;48.066;20.976;2024-02-23T13:01:59;5.55;;;1.67;;
76123;SDS011;65173;48.066;20.976;2024-02-23T13:05:02;2.20;;;1.90;;
76123;SDS011;65173;48.066;20.976;2024-02-23T13:08:05;2.15;;;1.35;;
76123;SDS011;65173;48.066;20.976;2024-02-23T13:11:09;2.08;;;1.58;;
76123;SDS011;65173;48.066;20.976;2024-02-23T13:14:12;2.75;;;1.88;;
76123;SDS011;65173;48.066;20.976;2024-02-23T13:17:14;2.45;;;2.10;;
76123;SDS011;65173;48.066;20.976;2024-02-23T13:20:17;1.05;;;0.80;;
76123;SDS011;65173;48.066;20.976;2024-02-23T13:23:20;5.53;;;2.72;;
76123;SDS011;65173;48.066;20.976;2024-02-23T13:26:23;2.47;;;1.83;;
76123;SDS011;65173;48.066;20.976;2024-02-23T13:29:25;4.75;;;1.88;;
76123;SDS011;65173;48.066;20.976;2024-02-23T13:32:28;4.05;;;2.25;;
76123;SDS011;65173;48.066;20.976;2024-02-23T13:35:30;2.63;;;1.63;;
76123;SDS011;65173;48.066;20.976;2024-02-23T13:38:33;5.15;;;2.05;;
76123;SDS011;65173;48.066;20.976;2024-02-23T13:41:40;1.83;;;1.65;;
76123;SDS011;65173;48.066;20.976;2024-02-23T13:44:43;6.25;;;4.10;;
76123;SDS011;65173;48.066;20.976;2024-02-23T13:47:55;7.18;;;3.70;;
76123;SDS011;65173;48.066;20.976;2024-02-23T13:51:00;3.60;;;2.42;;
76123;SDS011;65173;48.066;20.976;2024-02-23T13:54:07;4.82;;;3.92;;
76123;SDS011;65173;48.066;20.976;2024-02-23T13:57:09;5.87;;;3.53;;
76123;SDS011;65173;48.066;20.976;2024-02-23T14:00:12;6.55;;;3.75;;
76123;SDS011;65173;48.066;20.976;2024-02-23T14:03:18;6.28;;;3.70;;
76123;SDS011;65173;48.066;20.976;2024-02-23T14:06:21;8.77;;;4.40;;
76123;SDS011;65173;48.066;20.976;2024-02-23T14:09:23;2.55;;;1.85;;
76123;SDS011;65173;48.066;20.976;2024-02-23T14:12:26;3.47;;;2.63;;
76123;SDS011;65173;48.066;20.976;2024-02-23T14:15:28;4.85;;;2.85;;
76123;SDS011;65173;48.066;20.976;2024-02-23T14:18:31;6.20;;;4.00;;
76123;SDS011;65173;48.066;20.976;2024-02-23T14:21:39;6.80;;;3.88;;
76123;SDS011;65173;48.066;20.976;2024-02-23T14:24:42;8.02;;;4.57;;
76123;SDS011;65173;48.066;20.976;2024-02-23T14:27:44;4.63;;;3.33;;
76123;SDS011;65173;48.066;20.976;2024-02-23T14:30:47;5.60;;;3.38;;
76123;SDS011;65173;48.066;20.976;2024-02-23T14:33:50;11.77;;;4.15;;
76123;SDS011;65173;48.066;20.976;2024-02-23T14:36:53;3.97;;;2.20;;
76123;SDS011;65173;48.066;20.976;2024-02-23T14:39:56;6.63;;;3.70;;
76123;SDS011;65173;48.066;20.976;2024-02-23T14:42:58;5.72;;;3.38;;
76123;SDS011;65173;48.066;20.976;2024-02-23T14:46:01;6.15;;;3.28;;
76123;SDS011;65173;48.066;20.976;2024-02-23T14:49:06;4.05;;;3.00;;
76123;SDS011;65173;48.066;20.976;2024-02-23T14:52:09;5.40;;;2.90;;
76123;SDS011;65173;48.066;20.976;2024-02-23T14:55:14;2.97;;;2.42;;
76123;SDS011;65173;48.066;20.976;2024-02-23T14:58:17;4.97;;;2.63;;
76123;SDS011;65173;48.066;20.976;2024-02-23T15:01:19;5.43;;;2.42;;
76123;SDS011;65173;48.066;20.976;2024-02-23T15:04:22;2.95;;;2.13;;
76123;SDS011;65173;48.066;20.976;2024-02-23T15:07:25;5.87;;;3.20;;
76123;SDS011;65173;48.066;20.976;2024-02-23T15:10:28;2.60;;;1.98;;
76123;SDS011;65173;48.066;20.976;2024-02-23T15:13:30;6.68;;;3.92;;
76123;SDS011;65173;48.066;20.976;2024-02-23T15:16:33;6.47;;;3.90;;
76123;SDS011;65173;48.066;20.976;2024-02-23T15:19:35;6.57;;;4.80;;
76123;SDS011;65173;48.066;20.976;2024-02-23T15:22:38;10.07;;;4.57;;
76123;SDS011;65173;48.066;20.976;2024-02-23T15:25:45;8.07;;;4.32;;
76123;SDS011;65173;48.066;20.976;2024-02-23T15:28:52;11.63;;;5.33;;
76123;SDS011;65173;48.066;20.976;2024-02-23T15:31:56;8.88;;;5.35;;
76123;SDS011;65173;48.066;20.976;2024-02-23T15:34:58;9.38;;;4.60;;
76123;SDS011;65173;48.066;20.976;2024-02-23T15:38:01;8.83;;;4.40;;
76123;SDS011;65173;48.066;20.976;2024-02-23T15:41:03;7.00;;;4.07;;
76123;SDS011;65173;48.066;20.976;2024-02-23T15:44:07;12.30;;;4.85;;
76123;SDS011;65173;48.066;20.976;2024-02-23T15:47:09;11.30;;;4.18;;
76123;SDS011;65173;48.066;20.976;2024-02-23T15:50:12;9.23;;;4.63;;
76123;SDS011;65173;48.066;20.976;2024-02-23T15:53:35;9.02;;;4.72;;
76123;SDS011;65173;48.066;20.976;2024-02-23T15:56:38;9.48;;;4.70;;
76123;SDS011;65173;48.066;20.976;2024-02-23T15:59:41;8.00;;;4.93;;
76123;SDS011;65173;48.066;20.976;2024-02-23T16:02:44;8.93;;;5.43;;
76123;SDS011;65173;48.066;20.976;2024-02-23T16:05:47;7.43;;;4.13;;
76123;SDS011;65173;48.066;20.976;2024-02-23T16:08:50;9.10;;;4.73;;
76123;SDS011;65173;48.066;20.976;2024-02-23T16:11:53;5.10;;;4.25;;
76123;SDS011;65173;48.066;20.976;2024-02-23T16:14:56;7.72;;;4.85;;
76123;SDS011;65173;48.066;20.976;2024-02-23T16:17:58;10.68;;;4.78;;
76123;SDS011;65173;48.066;20.976;2024-02-23T16:21:02;9.10;;;5.28;;
76123;SDS011;65173;48.066;20.976;2024-02-23T16:24:05;7.13;;;3.80;;
76123;SDS011;65173;48.066;20.976;2024-02-23T16:27:09;7.28;;;4.00;;
76123;SDS011;65173;48.066;20.976;2024-02-23T16:30:11;7.53;;;5.00;;
76123;SDS011;65173;48.066;20.976;2024-02-23T16:33:15;7.95;;;5.13;;
76123;SDS011;65173;48.066;20.976;2024-02-23T16:36:18;11.43;;;4.63;;
76123;SDS011;65173;48.066;20.976;2024-02-23T16:39:20;8.93;;;5.13;;
76123;SDS011;65173;48.066;20.976;2024-02-23T16:42:22;14.23;;;6.82;;
76123;SDS011;65173;48.066;20.976;2024-02-23T16:45:26;22.13;;;9.75;;
76123;SDS011;65173;48.066;20.976;2024-02-23T16:48:30;13.07;;;7.20;;
76123;SDS011;65173;48.066;20.976;2024-02-23T16:51:32;15.70;;;7.03;;
76123;SDS011;65173;48.066;20.976;2024-02-23T16:54:35;17.33;;;7.18;;
76123;SDS011;65173;48.066;20.976;2024-02-23T16:57:37;14.13;;;6.65;;
76123;SDS011;65173;48.066;20.976;2024-02-23T17:00:40;12.07;;;5.20;;
76123;SDS011;65173;48.066;20.976;2024-02-23T17:03:42;10.98;;;6.03;;
76123;SDS011;65173;48.066;20.976;2024-02-23T17:06:45;7.70;;;5.03;;
76123;SDS011;65173;48.066;20.976;2024-02-23T17:09:48;7.97;;;4.60;;
76123;SDS011;65173;48.066;20.976;2024-02-23T17:12:50;9.63;;;4.60;;
76123;SDS011;65173;48.066;20.976;2024-02-23T17:15:55;8.75;;;4.25;;
76123;SDS011;65173;48.066;20.976;2024-02-23T17:18:57;8.23;;;4.70;;
76123;SDS011;65173;48.066;20.976;2024-02-23T17:22:01;10.48;;;4.50;;
76123;SDS011;65173;48.066;20.976;2024-02-23T17:25:04;8.15;;;4.13;;
76123;SDS011;65173;48.066;20.976;2024-02-23T17:28:07;10.88;;;4.95;;
76123;SDS011;65173;48.066;20.976;2024-02-23T17:31:10;7.60;;;4.17;;
76123;SDS011;65173;48.066;20.976;2024-02-23T17:34:13;8.23;;;4.55;;
76123;SDS011;65173;48.066;20.976;2024-02-23T17:37:18;7.05;;;4.38;;
76123;SDS011;65173;48.066;20.976;2024-02-23T17:40:21;10.20;;;3.93;;
76123;SDS011;65173;48.066;20.976;2024-02-23T17:43:23;9.23;;;4.70;;
76123;SDS011;65173;48.066;20.976;2024-02-23T17:46:26;4.75;;;3.97;;
76123;SDS011;65173;48.066;20.976;2024-02-23T17:49:29;6.32;;;4.28;;
76123;SDS011;65173;48.066;20.976;2024-02-23T17:52:32;8.60;;;5.22;;
76123;SDS011;65173;48.066;20.976;2024-02-23T17:55:35;8.63;;;4.35;;
76123;SDS011;65173;48.066;20.976;2024-02-23T17:58:37;5.72;;;3.60;;
76123;SDS011;65173;48.066;20.976;2024-02-23T18:01:40;9.13;;;4.37;;
76123;SDS011;65173;48.066;20.976;2024-02-23T18:04:42;8.93;;;4.40;;
76123;SDS011;65173;48.066;20.976;2024-02-23T18:07:48;4.68;;;3.63;;